Terminal Aerodrome Forecast
Issued by NWS

Home | Current Version | Previous Version | Text Only | Print | Product List | Glossary On
Versions: 1 2 3 4 5 6 7 8 9 10 11 12 13 14 15 16 17 18 19 20 21 22 23 24 25 26
000
FTAK31 PAFA 020540
TAFABT
TAF
PABT 020540Z 0206/0306 29008KT P6SM SCT070
     FM020800 14004KT 5SM FU BKN090
     FM021800 22012G18KT P6SM SCT100
     FM030400 23008KT P6SM SCT100=

USA.gov is the U.S. government's official web portal to all federal, state and local government web resources and services.